sensor_id;sensor_type;location;lat;lon;timestamp;P1;durP1;ratioP1;P2;durP2;ratioP2
44434;SDS011;30138;20.964;105.830;2023-04-03T00:03:18;38.30;;;26.30;;
44434;SDS011;30138;20.964;105.830;2023-04-03T00:08:26;41.15;;;28.65;;
44434;SDS011;30138;20.964;105.830;2023-04-03T00:13:34;42.13;;;28.75;;
44434;SDS011;30138;20.964;105.830;2023-04-03T00:18:44;41.65;;;29.30;;
44434;SDS011;30138;20.964;105.830;2023-04-03T00:23:52;46.47;;;31.00;;
44434;SDS011;30138;20.964;105.830;2023-04-03T00:29:00;39.83;;;28.17;;
44434;SDS011;30138;20.964;105.830;2023-04-03T00:34:09;41.55;;;28.95;;
44434;SDS011;30138;20.964;105.830;2023-04-03T00:39:16;40.03;;;27.58;;
44434;SDS011;30138;20.964;105.830;2023-04-03T00:50:21;45.33;;;29.52;;
44434;SDS011;30138;20.964;105.830;2023-04-03T00:55:29;42.40;;;28.10;;
44434;SDS011;30138;20.964;105.830;2023-04-03T01:00:37;43.55;;;28.40;;
44434;SDS011;30138;20.964;105.830;2023-04-03T01:05:51;44.03;;;28.85;;
44434;SDS011;30138;20.964;105.830;2023-04-03T01:11:00;43.13;;;27.20;;
44434;SDS011;30138;20.964;105.830;2023-04-03T01:16:09;40.10;;;27.48;;
44434;SDS011;30138;20.964;105.830;2023-04-03T01:21:40;38.95;;;25.48;;
44434;SDS011;30138;20.964;105.830;2023-04-03T01:27:11;39.00;;;25.05;;
44434;SDS011;30138;20.964;105.830;2023-04-03T01:32:21;36.58;;;23.67;;
44434;SDS011;30138;20.964;105.830;2023-04-03T01:37:29;33.72;;;23.63;;
44434;SDS011;30138;20.964;105.830;2023-04-03T01:42:36;36.45;;;24.42;;
44434;SDS011;30138;20.964;105.830;2023-04-03T01:47:45;39.90;;;24.90;;
44434;SDS011;30138;20.964;105.830;2023-04-03T01:52:52;42.50;;;25.08;;
44434;SDS011;30138;20.964;105.830;2023-04-03T01:57:59;41.05;;;27.13;;
44434;SDS011;30138;20.964;105.830;2023-04-03T02:03:08;46.70;;;30.45;;
44434;SDS011;30138;20.964;105.830;2023-04-03T02:08:15;53.25;;;32.63;;
44434;SDS011;30138;20.964;105.830;2023-04-03T02:13:22;58.20;;;36.80;;
44434;SDS011;30138;20.964;105.830;2023-04-03T02:18:32;57.78;;;36.28;;
44434;SDS011;30138;20.964;105.830;2023-04-03T02:23:40;68.78;;;40.70;;
44434;SDS011;30138;20.964;105.830;2023-04-03T02:28:47;64.72;;;41.42;;
44434;SDS011;30138;20.964;105.830;2023-04-03T02:33:57;72.25;;;44.55;;
44434;SDS011;30138;20.964;105.830;2023-04-03T02:39:11;70.03;;;43.30;;
44434;SDS011;30138;20.964;105.830;2023-04-03T02:44:17;75.88;;;45.00;;
44434;SDS011;30138;20.964;105.830;2023-04-03T02:49:27;69.65;;;44.58;;
44434;SDS011;30138;20.964;105.830;2023-04-03T02:54:35;73.22;;;43.83;;
44434;SDS011;30138;20.964;105.830;2023-04-03T02:59:44;78.47;;;46.30;;
44434;SDS011;30138;20.964;105.830;2023-04-03T03:04:53;75.35;;;46.53;;
44434;SDS011;30138;20.964;105.830;2023-04-03T03:10:00;79.65;;;49.45;;
44434;SDS011;30138;20.964;105.830;2023-04-03T03:15:07;74.00;;;45.17;;
44434;SDS011;30138;20.964;105.830;2023-04-03T03:20:17;75.93;;;45.38;;
44434;SDS011;30138;20.964;105.830;2023-04-03T03:25:24;68.30;;;42.45;;
44434;SDS011;30138;20.964;105.830;2023-04-03T03:30:31;69.75;;;42.40;;
44434;SDS011;30138;20.964;105.830;2023-04-03T03:35:40;73.53;;;44.92;;
44434;SDS011;30138;20.964;105.830;2023-04-03T03:40:47;66.65;;;42.78;;
44434;SDS011;30138;20.964;105.830;2023-04-03T03:45:57;73.93;;;42.70;;
44434;SDS011;30138;20.964;105.830;2023-04-03T03:51:05;65.80;;;40.65;;
44434;SDS011;30138;20.964;105.830;2023-04-03T03:56:13;68.80;;;40.83;;
44434;SDS011;30138;20.964;105.830;2023-04-03T04:01:21;70.45;;;39.90;;
44434;SDS011;30138;20.964;105.830;2023-04-03T04:06:30;68.53;;;40.58;;
44434;SDS011;30138;20.964;105.830;2023-04-03T04:11:40;66.38;;;41.78;;
44434;SDS011;30138;20.964;105.830;2023-04-03T04:16:48;75.55;;;44.92;;
44434;SDS011;30138;20.964;105.830;2023-04-03T04:22:01;91.90;;;51.38;;
44434;SDS011;30138;20.964;105.830;2023-04-03T04:27:09;102.22;;;58.88;;
44434;SDS011;30138;20.964;105.830;2023-04-03T04:32:15;121.45;;;67.50;;
44434;SDS011;30138;20.964;105.830;2023-04-03T04:37:24;144.20;;;78.45;;
44434;SDS011;30138;20.964;105.830;2023-04-03T04:42:31;146.32;;;83.07;;
44434;SDS011;30138;20.964;105.830;2023-04-03T04:47:38;149.95;;;86.95;;
44434;SDS011;30138;20.964;105.830;2023-04-03T04:52:48;148.75;;;88.30;;
44434;SDS011;30138;20.964;105.830;2023-04-03T04:57:55;148.95;;;91.35;;
44434;SDS011;30138;20.964;105.830;2023-04-03T05:03:02;151.50;;;92.05;;
44434;SDS011;30138;20.964;105.830;2023-04-03T05:08:10;157.43;;;95.43;;
44434;SDS011;30138;20.964;105.830;2023-04-03T05:13:18;154.68;;;92.63;;
44434;SDS011;30138;20.964;105.830;2023-04-03T05:18:24;161.45;;;93.53;;
44434;SDS011;30138;20.964;105.830;2023-04-03T05:23:36;174.30;;;98.03;;
44434;SDS011;30138;20.964;105.830;2023-04-03T05:28:43;162.77;;;94.63;;
44434;SDS011;30138;20.964;105.830;2023-04-03T05:33:51;170.27;;;98.85;;
44434;SDS011;30138;20.964;105.830;2023-04-03T05:38:59;159.68;;;100.20;;
44434;SDS011;30138;20.964;105.830;2023-04-03T05:44:08;168.30;;;100.82;;
44434;SDS011;30138;20.964;105.830;2023-04-03T05:49:17;170.18;;;101.10;;
44434;SDS011;30138;20.964;105.830;2023-04-03T05:54:27;165.02;;;98.60;;
44434;SDS011;30138;20.964;105.830;2023-04-03T05:59:48;168.50;;;98.32;;
44434;SDS011;30138;20.964;105.830;2023-04-03T06:10:08;153.93;;;95.93;;
44434;SDS011;30138;20.964;105.830;2023-04-03T06:20:23;154.00;;;94.18;;
44434;SDS011;30138;20.964;105.830;2023-04-03T06:25:37;150.30;;;97.20;;
44434;SDS011;30138;20.964;105.830;2023-04-03T06:30:46;151.35;;;96.22;;
44434;SDS011;30138;20.964;105.830;2023-04-03T06:35:57;157.73;;;98.20;;
44434;SDS011;30138;20.964;105.830;2023-04-03T06:41:09;147.57;;;94.93;;
44434;SDS011;30138;20.964;105.830;2023-04-03T06:46:15;150.82;;;98.07;;
44434;SDS011;30138;20.964;105.830;2023-04-03T06:51:26;152.52;;;98.72;;
44434;SDS011;30138;20.964;105.830;2023-04-03T06:56:36;152.70;;;96.05;;
44434;SDS011;30138;20.964;105.830;2023-04-03T07:01:44;144.48;;;95.30;;
44434;SDS011;30138;20.964;105.830;2023-04-03T07:06:51;146.63;;;94.25;;
44434;SDS011;30138;20.964;105.830;2023-04-03T07:11:59;141.38;;;95.18;;
44434;SDS011;30138;20.964;105.830;2023-04-03T07:17:05;144.27;;;93.88;;
44434;SDS011;30138;20.964;105.830;2023-04-03T07:22:12;132.07;;;90.72;;
44434;SDS011;30138;20.964;105.830;2023-04-03T07:27:21;143.13;;;93.85;;
44434;SDS011;30138;20.964;105.830;2023-04-03T07:32:28;133.48;;;91.10;;
44434;SDS011;30138;20.964;105.830;2023-04-03T07:37:35;137.55;;;90.63;;
44434;SDS011;30138;20.964;105.830;2023-04-03T07:42:44;131.25;;;90.70;;
44434;SDS011;30138;20.964;105.830;2023-04-03T07:47:51;126.88;;;88.68;;
44434;SDS011;30138;20.964;105.830;2023-04-03T07:52:58;127.22;;;86.47;;
44434;SDS011;30138;20.964;105.830;2023-04-03T07:58:06;122.68;;;85.50;;
44434;SDS011;30138;20.964;105.830;2023-04-03T08:03:14;119.47;;;83.80;;
44434;SDS011;30138;20.964;105.830;2023-04-03T08:08:22;117.63;;;80.30;;
44434;SDS011;30138;20.964;105.830;2023-04-03T08:13:33;108.85;;;78.55;;
44434;SDS011;30138;20.964;105.830;2023-04-03T08:18:40;111.15;;;76.70;;
44434;SDS011;30138;20.964;105.830;2023-04-03T08:23:47;106.30;;;75.90;;
44434;SDS011;30138;20.964;105.830;2023-04-03T08:28:56;105.50;;;73.53;;
44434;SDS011;30138;20.964;105.830;2023-04-03T08:34:03;102.85;;;72.57;;
44434;SDS011;30138;20.964;105.830;2023-04-03T08:39:10;96.10;;;69.78;;
44434;SDS011;30138;20.964;105.830;2023-04-03T08:44:24;100.03;;;68.95;;
44434;SDS011;30138;20.964;105.830;2023-04-03T08:54:49;91.05;;;64.85;;
44434;SDS011;30138;20.964;105.830;2023-04-03T09:00:02;91.38;;;63.10;;
44434;SDS011;30138;20.964;105.830;2023-04-03T09:05:15;85.07;;;62.03;;
44434;SDS011;30138;20.964;105.830;2023-04-03T09:10:26;84.75;;;59.90;;
44434;SDS011;30138;20.964;105.830;2023-04-03T09:15:38;83.85;;;58.30;;
44434;SDS011;30138;20.964;105.830;2023-04-03T09:20:46;77.88;;;56.20;;
44434;SDS011;30138;20.964;105.830;2023-04-03T09:26:02;85.07;;;57.45;;
44434;SDS011;30138;20.964;105.830;2023-04-03T09:31:17;80.40;;;56.03;;
44434;SDS011;30138;20.964;105.830;2023-04-03T09:36:43;82.18;;;57.88;;
44434;SDS011;30138;20.964;105.830;2023-04-03T09:42:00;82.75;;;57.15;;
44434;SDS011;30138;20.964;105.830;2023-04-03T09:47:19;85.65;;;56.83;;
44434;SDS011;30138;20.964;105.830;2023-04-03T09:52:30;79.97;;;55.72;;
44434;SDS011;30138;20.964;105.830;2023-04-03T09:57:37;80.18;;;55.70;;
44434;SDS011;30138;20.964;105.830;2023-04-03T10:02:46;85.78;;;55.63;;
44434;SDS011;30138;20.964;105.830;2023-04-03T10:08:15;81.65;;;54.97;;
44434;SDS011;30138;20.964;105.830;2023-04-03T10:13:27;83.85;;;55.50;;
44434;SDS011;30138;20.964;105.830;2023-04-03T10:18:37;82.55;;;55.30;;
44434;SDS011;30138;20.964;105.830;2023-04-03T10:23:49;77.38;;;54.55;;
44434;SDS011;30138;20.964;105.830;2023-04-03T10:29:02;76.65;;;52.22;;
44434;SDS011;30138;20.964;105.830;2023-04-03T10:34:24;74.75;;;52.05;;
44434;SDS011;30138;20.964;105.830;2023-04-03T10:39:36;76.90;;;53.15;;
44434;SDS011;30138;20.964;105.830;2023-04-03T10:44:54;79.75;;;53.90;;
44434;SDS011;30138;20.964;105.830;2023-04-03T10:50:29;81.78;;;55.33;;
44434;SDS011;30138;20.964;105.830;2023-04-03T10:55:47;81.25;;;52.55;;
44434;SDS011;30138;20.964;105.830;2023-04-03T11:00:59;88.95;;;56.47;;
44434;SDS011;30138;20.964;105.830;2023-04-03T11:06:14;84.28;;;57.65;;
44434;SDS011;30138;20.964;105.830;2023-04-03T11:11:30;96.03;;;58.25;;
44434;SDS011;30138;20.964;105.830;2023-04-03T11:16:43;88.65;;;59.60;;
44434;SDS011;30138;20.964;105.830;2023-04-03T11:27:05;88.80;;;60.17;;
44434;SDS011;30138;20.964;105.830;2023-04-03T11:38:13;102.75;;;65.13;;
44434;SDS011;30138;20.964;105.830;2023-04-03T11:43:26;99.80;;;64.32;;
44434;SDS011;30138;20.964;105.830;2023-04-03T11:48:50;127.53;;;76.25;;
44434;SDS011;30138;20.964;105.830;2023-04-03T11:54:06;182.75;;;92.07;;
44434;SDS011;30138;20.964;105.830;2023-04-03T11:59:56;245.70;;;122.63;;
44434;SDS011;30138;20.964;105.830;2023-04-03T12:10:35;172.60;;;94.20;;
44434;SDS011;30138;20.964;105.830;2023-04-03T12:15:47;156.18;;;85.30;;
44434;SDS011;30138;20.964;105.830;2023-04-03T12:21:01;151.55;;;84.60;;
44434;SDS011;30138;20.964;105.830;2023-04-03T12:26:21;144.85;;;82.57;;
44434;SDS011;30138;20.964;105.830;2023-04-03T12:31:36;142.52;;;79.78;;
44434;SDS011;30138;20.964;105.830;2023-04-03T12:36:57;136.57;;;79.82;;
44434;SDS011;30138;20.964;105.830;2023-04-03T12:42:18;143.00;;;81.05;;
44434;SDS011;30138;20.964;105.830;2023-04-03T12:47:38;149.90;;;80.90;;
44434;SDS011;30138;20.964;105.830;2023-04-03T12:52:50;152.10;;;83.57;;
44434;SDS011;30138;20.964;105.830;2023-04-03T12:58:22;143.10;;;74.22;;
44434;SDS011;30138;20.964;105.830;2023-04-03T13:03:30;131.15;;;67.70;;
44434;SDS011;30138;20.964;105.830;2023-04-03T13:08:37;145.63;;;76.80;;
44434;SDS011;30138;20.964;105.830;2023-04-03T13:13:56;144.38;;;80.97;;
44434;SDS011;30138;20.964;105.830;2023-04-03T13:19:06;165.07;;;89.13;;
44434;SDS011;30138;20.964;105.830;2023-04-03T13:24:23;178.75;;;92.32;;
44434;SDS011;30138;20.964;105.830;2023-04-03T13:29:35;161.77;;;83.10;;
44434;SDS011;30138;20.964;105.830;2023-04-03T13:34:43;160.85;;;81.43;;
44434;SDS011;30138;20.964;105.830;2023-04-03T13:39:57;156.43;;;82.80;;
44434;SDS011;30138;20.964;105.830;2023-04-03T13:45:15;139.73;;;78.80;;
44434;SDS011;30138;20.964;105.830;2023-04-03T13:50:27;145.07;;;80.07;;
44434;SDS011;30138;20.964;105.830;2023-04-03T13:55:35;142.80;;;78.53;;
44434;SDS011;30138;20.964;105.830;2023-04-03T14:01:06;142.23;;;79.45;;
44434;SDS011;30138;20.964;105.830;2023-04-03T14:06:19;136.63;;;76.85;;
44434;SDS011;30138;20.964;105.830;2023-04-03T14:11:27;134.63;;;76.38;;
44434;SDS011;30138;20.964;105.830;2023-04-03T14:16:37;142.75;;;77.13;;
44434;SDS011;30138;20.964;105.830;2023-04-03T14:21:46;132.50;;;78.30;;
44434;SDS011;30138;20.964;105.830;2023-04-03T14:26:54;126.80;;;75.85;;
44434;SDS011;30138;20.964;105.830;2023-04-03T14:32:04;121.85;;;73.88;;
44434;SDS011;30138;20.964;105.830;2023-04-03T14:37:12;116.93;;;72.65;;
44434;SDS011;30138;20.964;105.830;2023-04-03T14:42:21;125.07;;;74.60;;
44434;SDS011;30138;20.964;105.830;2023-04-03T14:47:32;115.88;;;72.43;;
44434;SDS011;30138;20.964;105.830;2023-04-03T14:52:43;118.55;;;75.32;;
44434;SDS011;30138;20.964;105.830;2023-04-03T14:57:50;113.18;;;72.97;;
44434;SDS011;30138;20.964;105.830;2023-04-03T15:02:59;114.60;;;73.32;;
44434;SDS011;30138;20.964;105.830;2023-04-03T15:08:08;108.03;;;70.35;;
44434;SDS011;30138;20.964;105.830;2023-04-03T15:13:24;109.22;;;69.93;;
44434;SDS011;30138;20.964;105.830;2023-04-03T15:18:35;117.03;;;71.60;;
44434;SDS011;30138;20.964;105.830;2023-04-03T15:23:43;115.95;;;70.63;;
44434;SDS011;30138;20.964;105.830;2023-04-03T15:28:56;108.30;;;70.20;;
44434;SDS011;30138;20.964;105.830;2023-04-03T15:34:05;116.45;;;70.97;;
44434;SDS011;30138;20.964;105.830;2023-04-03T15:39:12;107.93;;;69.65;;
44434;SDS011;30138;20.964;105.830;2023-04-03T15:44:19;111.15;;;70.13;;
44434;SDS011;30138;20.964;105.830;2023-04-03T15:49:28;104.28;;;67.38;;
44434;SDS011;30138;20.964;105.830;2023-04-03T15:54:38;109.78;;;67.72;;
44434;SDS011;30138;20.964;105.830;2023-04-03T15:59:47;103.82;;;67.50;;
44434;SDS011;30138;20.964;105.830;2023-04-03T16:10:55;99.30;;;64.65;;
44434;SDS011;30138;20.964;105.830;2023-04-03T16:16:02;103.05;;;65.88;;
44434;SDS011;30138;20.964;105.830;2023-04-03T16:21:12;100.35;;;65.32;;
44434;SDS011;30138;20.964;105.830;2023-04-03T16:26:21;101.03;;;67.07;;
44434;SDS011;30138;20.964;105.830;2023-04-03T16:31:28;98.10;;;63.58;;
44434;SDS011;30138;20.964;105.830;2023-04-03T16:36:38;96.07;;;64.38;;
44434;SDS011;30138;20.964;105.830;2023-04-03T16:41:45;100.82;;;63.00;;
44434;SDS011;30138;20.964;105.830;2023-04-03T16:46:53;95.55;;;63.70;;
44434;SDS011;30138;20.964;105.830;2023-04-03T16:52:03;93.88;;;63.75;;
44434;SDS011;30138;20.964;105.830;2023-04-03T16:57:10;96.75;;;62.85;;
44434;SDS011;30138;20.964;105.830;2023-04-03T17:02:17;93.18;;;62.75;;
44434;SDS011;30138;20.964;105.830;2023-04-03T17:07:28;89.28;;;60.47;;
44434;SDS011;30138;20.964;105.830;2023-04-03T17:12:36;97.40;;;62.77;;
44434;SDS011;30138;20.964;105.830;2023-04-03T17:17:43;92.40;;;59.92;;
44434;SDS011;30138;20.964;105.830;2023-04-03T17:22:52;90.65;;;61.17;;
44434;SDS011;30138;20.964;105.830;2023-04-03T17:27:59;91.97;;;58.30;;
44434;SDS011;30138;20.964;105.830;2023-04-03T17:33:06;85.72;;;59.30;;
44434;SDS011;30138;20.964;105.830;2023-04-03T17:38:14;85.30;;;58.72;;
44434;SDS011;30138;20.964;105.830;2023-04-03T17:43:21;86.85;;;58.70;;
44434;SDS011;30138;20.964;105.830;2023-04-03T17:48:28;85.35;;;58.55;;
44434;SDS011;30138;20.964;105.830;2023-04-03T17:53:39;90.03;;;58.58;;
44434;SDS011;30138;20.964;105.830;2023-04-03T17:58:46;87.88;;;58.78;;
44434;SDS011;30138;20.964;105.830;2023-04-03T18:03:54;84.47;;;57.63;;
44434;SDS011;30138;20.964;105.830;2023-04-03T18:09:04;84.38;;;56.13;;
44434;SDS011;30138;20.964;105.830;2023-04-03T18:14:15;84.55;;;55.13;;
44434;SDS011;30138;20.964;105.830;2023-04-03T18:19:24;82.07;;;56.55;;
44434;SDS011;30138;20.964;105.830;2023-04-03T18:24:33;80.60;;;56.25;;
44434;SDS011;30138;20.964;105.830;2023-04-03T18:29:42;82.75;;;55.33;;
44434;SDS011;30138;20.964;105.830;2023-04-03T18:34:51;79.13;;;55.72;;
44434;SDS011;30138;20.964;105.830;2023-04-03T18:39:59;78.72;;;55.97;;
44434;SDS011;30138;20.964;105.830;2023-04-03T18:45:06;80.03;;;55.95;;
44434;SDS011;30138;20.964;105.830;2023-04-03T18:50:16;80.55;;;54.42;;
44434;SDS011;30138;20.964;105.830;2023-04-03T18:55:25;81.05;;;55.35;;
44434;SDS011;30138;20.964;105.830;2023-04-03T19:00:59;79.85;;;55.00;;
44434;SDS011;30138;20.964;105.830;2023-04-03T19:06:05;77.57;;;55.17;;
44434;SDS011;30138;20.964;105.830;2023-04-03T19:11:15;78.20;;;56.25;;
44434;SDS011;30138;20.964;105.830;2023-04-03T19:16:21;77.53;;;54.97;;
44434;SDS011;30138;20.964;105.830;2023-04-03T19:21:29;74.65;;;53.95;;
44434;SDS011;30138;20.964;105.830;2023-04-03T19:26:40;76.45;;;53.85;;
44434;SDS011;30138;20.964;105.830;2023-04-03T19:31:48;79.63;;;55.05;;
44434;SDS011;30138;20.964;105.830;2023-04-03T19:36:55;79.28;;;53.78;;
44434;SDS011;30138;20.964;105.830;2023-04-03T19:42:04;73.97;;;51.65;;
44434;SDS011;30138;20.964;105.830;2023-04-03T19:47:12;78.68;;;54.72;;
44434;SDS011;30138;20.964;105.830;2023-04-03T19:52:22;75.45;;;53.70;;
44434;SDS011;30138;20.964;105.830;2023-04-03T19:57:32;76.97;;;54.15;;
44434;SDS011;30138;20.964;105.830;2023-04-03T20:02:39;77.97;;;54.88;;
44434;SDS011;30138;20.964;105.830;2023-04-03T20:07:48;78.72;;;55.60;;
44434;SDS011;30138;20.964;105.830;2023-04-03T20:12:59;79.22;;;54.95;;
44434;SDS011;30138;20.964;105.830;2023-04-03T20:18:09;78.45;;;56.00;;
44434;SDS011;30138;20.964;105.830;2023-04-03T20:23:18;75.63;;;52.80;;
44434;SDS011;30138;20.964;105.830;2023-04-03T20:28:27;77.32;;;52.95;;
44434;SDS011;30138;20.964;105.830;2023-04-03T20:33:34;79.78;;;53.50;;
44434;SDS011;30138;20.964;105.830;2023-04-03T20:38:40;78.80;;;54.28;;
44434;SDS011;30138;20.964;105.830;2023-04-03T20:43:51;73.40;;;52.42;;
44434;SDS011;30138;20.964;105.830;2023-04-03T20:48:58;72.72;;;51.95;;
44434;SDS011;30138;20.964;105.830;2023-04-03T20:54:05;72.47;;;52.45;;
44434;SDS011;30138;20.964;105.830;2023-04-03T20:59:14;70.25;;;49.88;;
44434;SDS011;30138;20.964;105.830;2023-04-03T21:04:22;71.95;;;52.00;;
44434;SDS011;30138;20.964;105.830;2023-04-03T21:20:55;71.18;;;49.60;;
44434;SDS011;30138;20.964;105.830;2023-04-03T21:26:02;71.45;;;52.22;;
44434;SDS011;30138;20.964;105.830;2023-04-03T21:31:08;68.55;;;50.17;;
44434;SDS011;30138;20.964;105.830;2023-04-03T21:36:18;71.00;;;49.55;;
44434;SDS011;30138;20.964;105.830;2023-04-03T21:41:25;71.40;;;51.50;;
44434;SDS011;30138;20.964;105.830;2023-04-03T21:46:32;67.85;;;49.15;;
44434;SDS011;30138;20.964;105.830;2023-04-03T21:51:41;73.78;;;50.13;;
44434;SDS011;30138;20.964;105.830;2023-04-03T21:56:48;71.80;;;51.30;;
44434;SDS011;30138;20.964;105.830;2023-04-03T22:01:56;71.20;;;49.55;;
44434;SDS011;30138;20.964;105.830;2023-04-03T22:07:08;68.90;;;49.97;;
44434;SDS011;30138;20.964;105.830;2023-04-03T22:12:15;68.07;;;48.00;;
44434;SDS011;30138;20.964;105.830;2023-04-03T22:17:22;69.65;;;50.35;;
44434;SDS011;30138;20.964;105.830;2023-04-03T22:22:32;66.05;;;47.83;;
44434;SDS011;30138;20.964;105.830;2023-04-03T22:27:39;66.25;;;48.63;;
44434;SDS011;30138;20.964;105.830;2023-04-03T22:32:46;64.75;;;48.00;;
44434;SDS011;30138;20.964;105.830;2023-04-03T22:37:55;67.57;;;48.95;;
44434;SDS011;30138;20.964;105.830;2023-04-03T22:43:02;64.38;;;46.15;;
44434;SDS011;30138;20.964;105.830;2023-04-03T22:48:09;69.20;;;48.35;;
44434;SDS011;30138;20.964;105.830;2023-04-03T22:53:17;65.55;;;47.78;;
44434;SDS011;30138;20.964;105.830;2023-04-03T22:58:25;71.00;;;51.33;;
44434;SDS011;30138;20.964;105.830;2023-04-03T23:03:32;65.70;;;49.10;;
44434;SDS011;30138;20.964;105.830;2023-04-03T23:08:42;68.15;;;49.60;;
44434;SDS011;30138;20.964;105.830;2023-04-03T23:13:49;76.63;;;51.25;;
44434;SDS011;30138;20.964;105.830;2023-04-03T23:18:56;72.70;;;49.05;;
44434;SDS011;30138;20.964;105.830;2023-04-03T23:24:05;68.72;;;48.83;;
44434;SDS011;30138;20.964;105.830;2023-04-03T23:29:12;66.97;;;48.75;;
44434;SDS011;30138;20.964;105.830;2023-04-03T23:34:20;69.00;;;48.90;;
44434;SDS011;30138;20.964;105.830;2023-04-03T23:39:30;64.60;;;47.42;;
44434;SDS011;30138;20.964;105.830;2023-04-03T23:44:38;67.50;;;48.28;;
44434;SDS011;30138;20.964;105.830;2023-04-03T23:49:47;67.82;;;48.78;;
44434;SDS011;30138;20.964;105.830;2023-04-03T23:54:57;67.18;;;49.08;;
